RPB7432 SKRG-MROC
Flight info
| Callsign | RPB7432 |
|---|---|
| Flight time | 1h 28m |
| Altitude | 36000 |
| Route | KOTIN3A KOTIN DCT BDT UG440 ISEBA CUARE3I |
| Aircraft | B738/M-SDE2E3FGHIRWXY/LB1 |
Departure
| Time | 2026-04-23 23:41 |
|---|---|
| Airport | Jose Maria Córdova International Airport (SKRG) |
Arrival
| Time | 2026-04-24 01:09 |
|---|---|
| Airport | Juan Santamaría International Airport (MROC) |
| Time | Latitude | Longitude | Altitude | Speed | Heading |
|---|---|---|---|---|---|
| 2026-04-23 23:09 | 6.17206 | -75.42694 | 7033 ft | 0 kts | 252° |
| 2026-04-23 23:29 | 6.17209 | -75.42684 | 7033 ft | 2 kts | 250° |
| 2026-04-23 23:29 | 6.17215 | -75.42669 | 7033 ft | 2 kts | 246° |
| 2026-04-23 23:30 | 6.17222 | -75.42654 | 7033 ft | 2 kts | 240° |
| 2026-04-23 23:30 | 6.17231 | -75.42641 | 7033 ft | 1 kts | 228° |
| 2026-04-23 23:30 | 6.17242 | -75.42630 | 7033 ft | 2 kts | 202° |
| 2026-04-23 23:30 | 6.17254 | -75.42628 | 7033 ft | 2 kts | 164° |
| 2026-04-23 23:31 | 6.17269 | -75.42632 | 7033 ft | 2 kts | 163° |
| 2026-04-23 23:34 | 6.17253 | -75.42627 | 7033 ft | 9 kts | 164° |
| 2026-04-23 23:34 | 6.17171 | -75.42617 | 7033 ft | 12 kts | 179° |
| 2026-04-23 23:34 | 6.17088 | -75.42608 | 7033 ft | 12 kts | 166° |
| 2026-04-23 23:35 | 6.17014 | -75.42578 | 7033 ft | 11 kts | 150° |
| 2026-04-23 23:35 | 6.16948 | -75.42537 | 7033 ft | 11 kts | 150° |
| 2026-04-23 23:35 | 6.16882 | -75.42499 | 7033 ft | 12 kts | 150° |
| 2026-04-23 23:35 | 6.16785 | -75.42482 | 7033 ft | 15 kts | 181° |
| 2026-04-23 23:36 | 6.16675 | -75.42482 | 7033 ft | 16 kts | 180° |
| 2026-04-23 23:36 | 6.16568 | -75.42482 | 7033 ft | 15 kts | 180° |
| 2026-04-23 23:36 | 6.16467 | -75.42483 | 7033 ft | 17 kts | 180° |
| 2026-04-23 23:36 | 6.16334 | -75.42483 | 7033 ft | 19 kts | 179° |
| 2026-04-23 23:37 | 6.16204 | -75.42481 | 7033 ft | 18 kts | 180° |
| 2026-04-23 23:37 | 6.16081 | -75.42480 | 7033 ft | 17 kts | 179° |
| 2026-04-23 23:37 | 6.15963 | -75.42480 | 7033 ft | 16 kts | 179° |
| 2026-04-23 23:37 | 6.15853 | -75.42479 | 7033 ft | 15 kts | 179° |
| 2026-04-23 23:38 | 6.15748 | -75.42478 | 7033 ft | 14 kts | 179° |
| 2026-04-23 23:38 | 6.15620 | -75.42476 | 7033 ft | 25 kts | 180° |
| 2026-04-23 23:38 | 6.15409 | -75.42474 | 7033 ft | 36 kts | 179° |
| 2026-04-23 23:38 | 6.15170 | -75.42473 | 7033 ft | 33 kts | 180° |
| 2026-04-23 23:39 | 6.14957 | -75.42470 | 7033 ft | 28 kts | 183° |
| 2026-04-23 23:39 | 6.14834 | -75.42460 | 7033 ft | 16 kts | 98° |
| 2026-04-23 23:39 | 6.14869 | -75.42367 | 7033 ft | 15 kts | 25° |
| 2026-04-23 23:39 | 6.14954 | -75.42318 | 7033 ft | 14 kts | 33° |
| 2026-04-23 23:40 | 6.15019 | -75.42301 | 7033 ft | 13 kts | 355° |
| 2026-04-23 23:40 | 6.15310 | -75.42307 | 7033 ft | 72 kts | 7° |
| 2026-04-23 23:40 | 6.15996 | -75.42309 | 7033 ft | 126 kts | 358° |
| 2026-04-23 23:40 | 6.17038 | -75.42321 | 7086 ft | 167 kts | 357° |
| 2026-04-23 23:41 | 6.18219 | -75.42325 | 7696 ft | 166 kts | 359° |
| 2026-04-23 23:41 | 6.19380 | -75.42294 | 8350 ft | 170 kts | 359° |
| 2026-04-23 23:41 | 6.20597 | -75.42291 | 8739 ft | 186 kts | 357° |
| 2026-04-23 23:41 | 6.21971 | -75.42336 | 9018 ft | 208 kts | 356° |
| 2026-04-23 23:42 | 6.23513 | -75.42375 | 9244 ft | 231 kts | 359° |
| 2026-04-23 23:42 | 6.25202 | -75.42380 | 9501 ft | 253 kts | 359° |
| 2026-04-23 23:42 | 6.27041 | -75.42386 | 9751 ft | 275 kts | 359° |
| 2026-04-23 23:42 | 6.28983 | -75.42396 | 10062 ft | 293 kts | 359° |
| 2026-04-23 23:43 | 6.31063 | -75.42409 | 10581 ft | 304 kts | 359° |
| 2026-04-23 23:43 | 6.33254 | -75.42423 | 10887 ft | 323 kts | 359° |
| 2026-04-23 23:43 | 6.35601 | -75.42413 | 11147 ft | 341 kts | 0° |
| 2026-04-23 23:43 | 6.37979 | -75.42380 | 11535 ft | 353 kts | 0° |
| 2026-04-23 23:44 | 6.40443 | -75.42429 | 12134 ft | 356 kts | 352° |
| 2026-04-23 23:44 | 6.42814 | -75.43142 | 12735 ft | 359 kts | 333° |
| 2026-04-23 23:44 | 6.44840 | -75.44605 | 13342 ft | 360 kts | 314° |
| 2026-04-23 23:44 | 6.46295 | -75.46666 | 13923 ft | 362 kts | 295° |
| 2026-04-23 23:45 | 6.47126 | -75.49068 | 14512 ft | 364 kts | 287° |
| 2026-04-23 23:45 | 6.48091 | -75.51383 | 15048 ft | 368 kts | 299° |
| 2026-04-23 23:45 | 6.49521 | -75.53568 | 15604 ft | 371 kts | 303° |
| 2026-04-23 23:45 | 6.50523 | -75.55358 | 15852 ft | 374 kts | 294° |
| 2026-04-23 23:46 | 6.51405 | -75.57849 | 16003 ft | 377 kts | 282° |
| 2026-04-23 23:46 | 6.51734 | -75.60503 | 16666 ft | 375 kts | 272° |
| 2026-04-23 23:46 | 6.51779 | -75.63132 | 17192 ft | 377 kts | 270° |
| 2026-04-23 23:46 | 6.51766 | -75.65769 | 17647 ft | 381 kts | 270° |
| 2026-04-23 23:47 | 6.51792 | -75.68452 | 18113 ft | 384 kts | 271° |
| 2026-04-23 23:47 | 6.51847 | -75.71105 | 18570 ft | 386 kts | 271° |
| 2026-04-23 23:47 | 6.51915 | -75.73817 | 19027 ft | 388 kts | 271° |
| 2026-04-23 23:47 | 6.51987 | -75.76522 | 19459 ft | 391 kts | 271° |
| 2026-04-23 23:48 | 6.52066 | -75.79285 | 19875 ft | 394 kts | 271° |
| 2026-04-23 23:48 | 6.52146 | -75.82064 | 20283 ft | 396 kts | 271° |
| 2026-04-23 23:48 | 6.52226 | -75.84823 | 20650 ft | 400 kts | 271° |
| 2026-04-23 23:48 | 6.52308 | -75.87644 | 21035 ft | 402 kts | 271° |
| 2026-04-23 23:49 | 6.52471 | -75.93262 | 21755 ft | 407 kts | 271° |
| 2026-04-23 23:49 | 6.52554 | -75.96140 | 22130 ft | 408 kts | 271° |
| 2026-04-23 23:49 | 6.52638 | -75.98985 | 22463 ft | 411 kts | 271° |
| 2026-04-23 23:50 | 6.52726 | -76.01911 | 22790 ft | 413 kts | 271° |
| 2026-04-23 23:50 | 6.52813 | -76.04771 | 23098 ft | 416 kts | 271° |
| 2026-04-23 23:50 | 6.52898 | -76.07679 | 23402 ft | 418 kts | 271° |
| 2026-04-23 23:50 | 6.52985 | -76.10626 | 23689 ft | 421 kts | 271° |
| 2026-04-23 23:51 | 6.53070 | -76.13544 | 23964 ft | 423 kts | 271° |
| 2026-04-23 23:51 | 6.53158 | -76.16524 | 24234 ft | 425 kts | 271° |
| 2026-04-23 23:51 | 6.53299 | -76.19495 | 24628 ft | 424 kts | 275° |
| 2026-04-23 23:51 | 6.53799 | -76.22439 | 24888 ft | 427 kts | 283° |
| 2026-04-23 23:52 | 6.54721 | -76.25261 | 25104 ft | 430 kts | 291° |
| 2026-04-23 23:52 | 6.55893 | -76.28019 | 25359 ft | 432 kts | 294° |
| 2026-04-23 23:52 | 6.57205 | -76.30806 | 25625 ft | 434 kts | 295° |
| 2026-04-23 23:52 | 6.58498 | -76.33486 | 25860 ft | 436 kts | 295° |
| 2026-04-23 23:53 | 6.59831 | -76.36263 | 26028 ft | 439 kts | 295° |
| 2026-04-23 23:53 | 6.61162 | -76.39046 | 26164 ft | 443 kts | 294° |
| 2026-04-23 23:53 | 6.62474 | -76.41805 | 26449 ft | 443 kts | 295° |
| 2026-04-23 23:53 | 6.63822 | -76.44633 | 26725 ft | 444 kts | 294° |
| 2026-04-23 23:54 | 6.65150 | -76.47429 | 26919 ft | 446 kts | 294° |
| 2026-04-23 23:54 | 6.66483 | -76.50236 | 27139 ft | 448 kts | 294° |
| 2026-04-23 23:54 | 6.67830 | -76.53076 | 27362 ft | 449 kts | 294° |
| 2026-04-23 23:54 | 6.69175 | -76.55901 | 27490 ft | 453 kts | 294° |
| 2026-04-23 23:55 | 6.70548 | -76.58788 | 27721 ft | 454 kts | 294° |
| 2026-04-23 23:55 | 6.71890 | -76.61612 | 27939 ft | 455 kts | 294° |
| 2026-04-23 23:55 | 6.73264 | -76.64506 | 28141 ft | 457 kts | 294° |
| 2026-04-23 23:55 | 6.74651 | -76.67430 | 28328 ft | 459 kts | 294° |
| 2026-04-23 23:56 | 6.76025 | -76.70326 | 28522 ft | 461 kts | 294° |
| 2026-04-23 23:56 | 6.77408 | -76.73245 | 28686 ft | 464 kts | 294° |
| 2026-04-23 23:56 | 6.78806 | -76.76195 | 28858 ft | 466 kts | 294° |
| 2026-04-23 23:56 | 6.80193 | -76.79121 | 29053 ft | 468 kts | 294° |
| 2026-04-23 23:57 | 6.81595 | -76.82080 | 29241 ft | 470 kts | 294° |
| 2026-04-23 23:57 | 6.83011 | -76.85069 | 29437 ft | 472 kts | 294° |
| 2026-04-23 23:57 | 6.84422 | -76.88051 | 29626 ft | 474 kts | 294° |
| 2026-04-23 23:57 | 6.85845 | -76.91056 | 29838 ft | 475 kts | 294° |
| 2026-04-23 23:58 | 6.87256 | -76.94037 | 30021 ft | 477 kts | 294° |
| 2026-04-23 23:58 | 6.88688 | -76.97065 | 30260 ft | 478 kts | 294° |
| 2026-04-23 23:58 | 6.90123 | -77.00097 | 30520 ft | 478 kts | 294° |
| 2026-04-23 23:58 | 6.91556 | -77.03128 | 30749 ft | 479 kts | 294° |
| 2026-04-23 23:59 | 6.92980 | -77.06138 | 31004 ft | 479 kts | 294° |
| 2026-04-23 23:59 | 6.94428 | -77.09201 | 31247 ft | 480 kts | 294° |
| 2026-04-23 23:59 | 6.95856 | -77.12222 | 31494 ft | 480 kts | 294° |
| 2026-04-23 23:59 | 6.97297 | -77.15272 | 31751 ft | 481 kts | 295° |
| 2026-04-24 00:00 | 6.98711 | -77.18262 | 32015 ft | 481 kts | 295° |
| 2026-04-24 00:00 | 7.00154 | -77.21316 | 32290 ft | 480 kts | 295° |
| 2026-04-24 00:00 | 7.01587 | -77.24350 | 32576 ft | 480 kts | 294° |
| 2026-04-24 00:00 | 7.03016 | -77.27376 | 32861 ft | 480 kts | 294° |
| 2026-04-24 00:01 | 7.04443 | -77.30397 | 33179 ft | 478 kts | 294° |
| 2026-04-24 00:01 | 7.05859 | -77.33398 | 33495 ft | 477 kts | 294° |
| 2026-04-24 00:01 | 7.07295 | -77.36440 | 33814 ft | 476 kts | 294° |
| 2026-04-24 00:01 | 7.08704 | -77.39425 | 34124 ft | 475 kts | 294° |
| 2026-04-24 00:02 | 7.10123 | -77.42433 | 34438 ft | 474 kts | 294° |
| 2026-04-24 00:02 | 7.11537 | -77.45431 | 34751 ft | 473 kts | 294° |
| 2026-04-24 00:02 | 7.12947 | -77.48421 | 35064 ft | 471 kts | 294° |
| 2026-04-24 00:02 | 7.14372 | -77.51443 | 35380 ft | 470 kts | 294° |
| 2026-04-24 00:03 | 7.15747 | -77.54360 | 35684 ft | 469 kts | 294° |
| 2026-04-24 00:03 | 7.17143 | -77.57321 | 35857 ft | 470 kts | 294° |
| 2026-04-24 00:03 | 7.19944 | -77.63266 | 35879 ft | 469 kts | 294° |
| 2026-04-24 00:04 | 7.22714 | -77.69144 | 35874 ft | 458 kts | 293° |
| 2026-04-24 00:04 | 7.25434 | -77.74922 | 35873 ft | 456 kts | 293° |
| 2026-04-24 00:05 | 7.28170 | -77.80737 | 35868 ft | 464 kts | 293° |
| 2026-04-24 00:05 | 7.30915 | -77.86571 | 35859 ft | 459 kts | 293° |
| 2026-04-24 00:06 | 7.33639 | -77.92365 | 35850 ft | 458 kts | 293° |
| 2026-04-24 00:06 | 7.36402 | -77.98241 | 35849 ft | 467 kts | 293° |
| 2026-04-24 00:07 | 7.39200 | -78.04196 | 35861 ft | 474 kts | 293° |
| 2026-04-24 00:07 | 7.42025 | -78.10211 | 35922 ft | 477 kts | 293° |
| 2026-04-24 00:08 | 7.44875 | -78.16281 | 35954 ft | 481 kts | 293° |
| 2026-04-24 00:08 | 7.47741 | -78.22387 | 35965 ft | 484 kts | 293° |
| 2026-04-24 00:09 | 7.50615 | -78.28514 | 35955 ft | 484 kts | 293° |
| 2026-04-24 00:09 | 7.53499 | -78.34664 | 35977 ft | 487 kts | 293° |
| 2026-04-24 00:10 | 7.55934 | -78.39859 | 35988 ft | 488 kts | 293° |
| 2026-04-24 00:10 | 7.58824 | -78.46027 | 36009 ft | 492 kts | 293° |
| 2026-04-24 00:11 | 7.61772 | -78.52324 | 36032 ft | 493 kts | 294° |
| 2026-04-24 00:11 | 7.64674 | -78.58525 | 36111 ft | 494 kts | 294° |
| 2026-04-24 00:12 | 7.67605 | -78.64784 | 36132 ft | 495 kts | 294° |
| 2026-04-24 00:12 | 7.70559 | -78.71101 | 36151 ft | 497 kts | 294° |
| 2026-04-24 00:13 | 7.73508 | -78.77411 | 36167 ft | 498 kts | 294° |
| 2026-04-24 00:13 | 7.76453 | -78.83713 | 36171 ft | 499 kts | 294° |
| 2026-04-24 00:14 | 7.79425 | -78.90075 | 36184 ft | 501 kts | 294° |
| 2026-04-24 00:14 | 7.82385 | -78.96414 | 36203 ft | 502 kts | 294° |
| 2026-04-24 00:15 | 7.85373 | -79.02818 | 36209 ft | 502 kts | 294° |
| 2026-04-24 00:15 | 7.88331 | -79.09161 | 36225 ft | 503 kts | 294° |
| 2026-04-24 00:16 | 7.91305 | -79.15540 | 36249 ft | 502 kts | 294° |
| 2026-04-24 00:16 | 7.94280 | -79.21924 | 36238 ft | 503 kts | 294° |
| 2026-04-24 00:17 | 7.97247 | -79.28295 | 36255 ft | 503 kts | 294° |
| 2026-04-24 00:17 | 8.00227 | -79.34694 | 36266 ft | 503 kts | 294° |
| 2026-04-24 00:18 | 8.03201 | -79.41085 | 36274 ft | 503 kts | 294° |
| 2026-04-24 00:18 | 8.06165 | -79.47461 | 36277 ft | 503 kts | 294° |
| 2026-04-24 00:19 | 8.09138 | -79.53854 | 36285 ft | 503 kts | 294° |
| 2026-04-24 00:19 | 8.12121 | -79.60275 | 36282 ft | 504 kts | 294° |
| 2026-04-24 00:20 | 8.15092 | -79.66672 | 36289 ft | 504 kts | 294° |
| 2026-04-24 00:20 | 8.18018 | -79.72974 | 36074 ft | 480 kts | 294° |
| 2026-04-24 00:21 | 8.20780 | -79.78927 | 35957 ft | 466 kts | 294° |
| 2026-04-24 00:21 | 8.23519 | -79.84833 | 35908 ft | 466 kts | 294° |
| 2026-04-24 00:22 | 8.26282 | -79.90794 | 35886 ft | 467 kts | 294° |
| 2026-04-24 00:22 | 8.29018 | -79.96698 | 35876 ft | 467 kts | 294° |
| 2026-04-24 00:23 | 8.31765 | -80.02630 | 35876 ft | 467 kts | 294° |
| 2026-04-24 00:23 | 8.34525 | -80.08593 | 35876 ft | 467 kts | 294° |
| 2026-04-24 00:24 | 8.37262 | -80.14507 | 35876 ft | 467 kts | 294° |
| 2026-04-24 00:24 | 8.40005 | -80.20439 | 35876 ft | 467 kts | 294° |
| 2026-04-24 00:25 | 8.42757 | -80.26392 | 35876 ft | 467 kts | 294° |
| 2026-04-24 00:25 | 8.45496 | -80.32319 | 35876 ft | 467 kts | 294° |
| 2026-04-24 00:26 | 8.48238 | -80.38256 | 35876 ft | 467 kts | 294° |
| 2026-04-24 00:26 | 8.50978 | -80.44191 | 35876 ft | 467 kts | 294° |
| 2026-04-24 00:27 | 8.53713 | -80.50119 | 35876 ft | 467 kts | 294° |
| 2026-04-24 00:27 | 8.56451 | -80.56055 | 35876 ft | 467 kts | 294° |
| 2026-04-24 00:28 | 8.59190 | -80.61998 | 35875 ft | 467 kts | 294° |
| 2026-04-24 00:28 | 8.61938 | -80.67962 | 35876 ft | 467 kts | 294° |
| 2026-04-24 00:29 | 8.64679 | -80.73912 | 35876 ft | 467 kts | 294° |
| 2026-04-24 00:29 | 8.67409 | -80.79843 | 35876 ft | 467 kts | 294° |
| 2026-04-24 00:30 | 8.70154 | -80.85810 | 35876 ft | 467 kts | 294° |
| 2026-04-24 00:30 | 8.72881 | -80.91740 | 35876 ft | 467 kts | 294° |
| 2026-04-24 00:31 | 8.75594 | -80.97643 | 35876 ft | 467 kts | 294° |
| 2026-04-24 00:31 | 8.78291 | -81.03512 | 35876 ft | 467 kts | 294° |
| 2026-04-24 00:32 | 8.80835 | -81.09053 | 35876 ft | 467 kts | 294° |
| 2026-04-24 00:32 | 8.83623 | -81.15127 | 35876 ft | 467 kts | 294° |
| 2026-04-24 00:33 | 8.86366 | -81.21107 | 35876 ft | 467 kts | 294° |
| 2026-04-24 00:33 | 8.89102 | -81.27074 | 35875 ft | 467 kts | 294° |
| 2026-04-24 00:34 | 8.91833 | -81.33032 | 35876 ft | 467 kts | 294° |
| 2026-04-24 00:34 | 8.94541 | -81.38944 | 35876 ft | 468 kts | 294° |
| 2026-04-24 00:35 | 8.97294 | -81.44957 | 35876 ft | 468 kts | 294° |
| 2026-04-24 00:35 | 9.00036 | -81.50948 | 35876 ft | 468 kts | 294° |
| 2026-04-24 00:36 | 9.02742 | -81.56865 | 35876 ft | 468 kts | 294° |
| 2026-04-24 00:36 | 9.05484 | -81.62862 | 35876 ft | 468 kts | 294° |
| 2026-04-24 00:37 | 9.08218 | -81.68847 | 35876 ft | 468 kts | 294° |
| 2026-04-24 00:37 | 9.10945 | -81.74818 | 35876 ft | 468 kts | 294° |
| 2026-04-24 00:38 | 9.13661 | -81.80768 | 35876 ft | 468 kts | 294° |
| 2026-04-24 00:38 | 9.16385 | -81.86738 | 35876 ft | 467 kts | 294° |
| 2026-04-24 00:39 | 9.19136 | -81.92773 | 35876 ft | 467 kts | 294° |
| 2026-04-24 00:39 | 9.21865 | -81.98746 | 35876 ft | 467 kts | 294° |
| 2026-04-24 00:40 | 9.24566 | -82.04675 | 35876 ft | 467 kts | 294° |
| 2026-04-24 00:40 | 9.27300 | -82.10684 | 35876 ft | 467 kts | 294° |
| 2026-04-24 00:41 | 9.29991 | -82.16606 | 35876 ft | 467 kts | 294° |
| 2026-04-24 00:41 | 9.32720 | -82.22609 | 35876 ft | 467 kts | 294° |
| 2026-04-24 00:42 | 9.35157 | -82.28684 | 35876 ft | 466 kts | 288° |
| 2026-04-24 00:42 | 9.37140 | -82.34913 | 35876 ft | 465 kts | 287° |
| 2026-04-24 00:43 | 9.39149 | -82.41167 | 35876 ft | 465 kts | 287° |
| 2026-04-24 00:43 | 9.41159 | -82.47337 | 35876 ft | 466 kts | 287° |
| 2026-04-24 00:44 | 9.43201 | -82.53584 | 35876 ft | 465 kts | 287° |
| 2026-04-24 00:44 | 9.45256 | -82.59820 | 35877 ft | 465 kts | 288° |
| 2026-04-24 00:45 | 9.47300 | -82.66055 | 35876 ft | 465 kts | 287° |
| 2026-04-24 00:45 | 9.49337 | -82.72288 | 35877 ft | 465 kts | 287° |
| 2026-04-24 00:46 | 9.51357 | -82.78475 | 35658 ft | 456 kts | 287° |
| 2026-04-24 00:46 | 9.52326 | -82.81445 | 35212 ft | 449 kts | 287° |
| 2026-04-24 00:46 | 9.53314 | -82.84466 | 34280 ft | 454 kts | 287° |
| 2026-04-24 00:47 | 9.54307 | -82.87537 | 33033 ft | 465 kts | 285° |
| 2026-04-24 00:47 | 9.55171 | -82.90712 | 32057 ft | 470 kts | 282° |
| 2026-04-24 00:47 | 9.55939 | -82.93882 | 31808 ft | 458 kts | 281° |
| 2026-04-24 00:47 | 9.56708 | -82.96978 | 31553 ft | 447 kts | 282° |
| 2026-04-24 00:48 | 9.57472 | -83.00004 | 31301 ft | 437 kts | 282° |
| 2026-04-24 00:48 | 9.58219 | -83.02944 | 31040 ft | 420 kts | 282° |
| 2026-04-24 00:48 | 9.58931 | -83.05740 | 30786 ft | 404 kts | 282° |
| 2026-04-24 00:48 | 9.59639 | -83.08519 | 30539 ft | 405 kts | 282° |
| 2026-04-24 00:49 | 9.60332 | -83.11235 | 30271 ft | 401 kts | 282° |
| 2026-04-24 00:49 | 9.61089 | -83.13938 | 29881 ft | 399 kts | 285° |
| 2026-04-24 00:49 | 9.62017 | -83.16595 | 29482 ft | 398 kts | 288° |
| 2026-04-24 00:49 | 9.62986 | -83.19214 | 29073 ft | 396 kts | 288° |
| 2026-04-24 00:50 | 9.63941 | -83.21833 | 28659 ft | 394 kts | 288° |
| 2026-04-24 00:50 | 9.64888 | -83.24445 | 28243 ft | 392 kts | 288° |
| 2026-04-24 00:50 | 9.65809 | -83.27012 | 27836 ft | 390 kts | 288° |
| 2026-04-24 00:50 | 9.66734 | -83.29603 | 27419 ft | 388 kts | 287° |
| 2026-04-24 00:51 | 9.67639 | -83.32152 | 27035 ft | 385 kts | 288° |
| 2026-04-24 00:51 | 9.68540 | -83.34691 | 26631 ft | 382 kts | 288° |
| 2026-04-24 00:51 | 9.69438 | -83.37221 | 26221 ft | 380 kts | 288° |
| 2026-04-24 00:51 | 9.70329 | -83.39736 | 26039 ft | 372 kts | 288° |
| 2026-04-24 00:52 | 9.71192 | -83.42175 | 25916 ft | 364 kts | 288° |
| 2026-04-24 00:52 | 9.72044 | -83.44580 | 25308 ft | 370 kts | 288° |
| 2026-04-24 00:52 | 9.72928 | -83.47078 | 24741 ft | 373 kts | 288° |
| 2026-04-24 00:52 | 9.73806 | -83.49552 | 24319 ft | 372 kts | 289° |
| 2026-04-24 00:53 | 9.74517 | -83.52059 | 23904 ft | 369 kts | 281° |
| 2026-04-24 00:53 | 9.74826 | -83.54635 | 23497 ft | 367 kts | 272° |
| 2026-04-24 00:53 | 9.74846 | -83.57179 | 23085 ft | 365 kts | 268° |
| 2026-04-24 00:53 | 9.74682 | -83.59736 | 22678 ft | 363 kts | 265° |
| 2026-04-24 00:54 | 9.74470 | -83.62292 | 22275 ft | 361 kts | 266° |
| 2026-04-24 00:54 | 9.74282 | -83.64828 | 21874 ft | 359 kts | 266° |
| 2026-04-24 00:54 | 9.74103 | -83.67321 | 21485 ft | 357 kts | 266° |
| 2026-04-24 00:54 | 9.73924 | -83.69838 | 21112 ft | 355 kts | 266° |
| 2026-04-24 00:55 | 9.73748 | -83.72311 | 20736 ft | 352 kts | 266° |
| 2026-04-24 00:55 | 9.73571 | -83.74785 | 20353 ft | 350 kts | 266° |
| 2026-04-24 00:55 | 9.73393 | -83.77255 | 19965 ft | 349 kts | 266° |
| 2026-04-24 00:55 | 9.73218 | -83.79679 | 19583 ft | 347 kts | 267° |
| 2026-04-24 00:56 | 9.73099 | -83.81337 | 19319 ft | 346 kts | 267° |
| 2026-04-24 00:56 | 9.72927 | -83.83726 | 18939 ft | 345 kts | 267° |
| 2026-04-24 00:56 | 9.72747 | -83.86173 | 18552 ft | 343 kts | 266° |
| 2026-04-24 00:56 | 9.72563 | -83.88559 | 18175 ft | 342 kts | 266° |
| 2026-04-24 00:57 | 9.72378 | -83.90948 | 17797 ft | 341 kts | 266° |
| 2026-04-24 00:57 | 9.72195 | -83.93356 | 17429 ft | 339 kts | 265° |
| 2026-04-24 00:57 | 9.71828 | -83.98079 | 16663 ft | 337 kts | 264° |
| 2026-04-24 00:58 | 9.71646 | -84.00460 | 16244 ft | 337 kts | 264° |
| 2026-04-24 00:58 | 9.71465 | -84.02803 | 15862 ft | 336 kts | 264° |
| 2026-04-24 00:58 | 9.71280 | -84.05192 | 15473 ft | 336 kts | 264° |
| 2026-04-24 00:58 | 9.71096 | -84.07564 | 15090 ft | 335 kts | 265° |
| 2026-04-24 00:59 | 9.70915 | -84.09884 | 14720 ft | 334 kts | 265° |
| 2026-04-24 00:59 | 9.70732 | -84.12240 | 14345 ft | 333 kts | 265° |
| 2026-04-24 00:59 | 9.70546 | -84.14599 | 13977 ft | 332 kts | 265° |
| 2026-04-24 00:59 | 9.70368 | -84.16895 | 13623 ft | 331 kts | 266° |
| 2026-04-24 01:00 | 9.70192 | -84.19192 | 13266 ft | 329 kts | 265° |
| 2026-04-24 01:00 | 9.70086 | -84.21482 | 12899 ft | 328 kts | 273° |
| 2026-04-24 01:00 | 9.70424 | -84.23788 | 12508 ft | 327 kts | 284° |
| 2026-04-24 01:00 | 9.71113 | -84.25951 | 12095 ft | 316 kts | 291° |
| 2026-04-24 01:01 | 9.71958 | -84.27953 | 11729 ft | 301 kts | 295° |
| 2026-04-24 01:01 | 9.72820 | -84.29837 | 11390 ft | 288 kts | 295° |
| 2026-04-24 01:01 | 9.73650 | -84.31675 | 11084 ft | 292 kts | 295° |
| 2026-04-24 01:01 | 9.74514 | -84.33616 | 10752 ft | 306 kts | 294° |
| 2026-04-24 01:02 | 9.75387 | -84.35595 | 10417 ft | 310 kts | 294° |
| 2026-04-24 01:02 | 9.76181 | -84.37407 | 10299 ft | 302 kts | 294° |
| 2026-04-24 01:02 | 9.77044 | -84.39374 | 10220 ft | 292 kts | 294° |
| 2026-04-24 01:02 | 9.77879 | -84.41210 | 10135 ft | 282 kts | 300° |
| 2026-04-24 01:03 | 9.79198 | -84.42586 | 10042 ft | 261 kts | 326° |
| 2026-04-24 01:03 | 9.80757 | -84.43391 | 9799 ft | 253 kts | 342° |
| 2026-04-24 01:03 | 9.82515 | -84.43497 | 9238 ft | 260 kts | 12° |
| 2026-04-24 01:03 | 9.84221 | -84.42873 | 8511 ft | 266 kts | 25° |
| 2026-04-24 01:04 | 9.85921 | -84.42056 | 7757 ft | 270 kts | 24° |
| 2026-04-24 01:04 | 9.87682 | -84.41302 | 7148 ft | 268 kts | 22° |
| 2026-04-24 01:04 | 9.89360 | -84.40639 | 6871 ft | 255 kts | 21° |
| 2026-04-24 01:04 | 9.90967 | -84.40005 | 6638 ft | 244 kts | 24° |
| 2026-04-24 01:05 | 9.92352 | -84.39092 | 6407 ft | 230 kts | 45° |
| 2026-04-24 01:05 | 9.93166 | -84.37783 | 6170 ft | 216 kts | 66° |
| 2026-04-24 01:05 | 9.93662 | -84.36364 | 5894 ft | 205 kts | 71° |
| 2026-04-24 01:05 | 9.94125 | -84.35038 | 5648 ft | 192 kts | 70° |
| 2026-04-24 01:06 | 9.94568 | -84.33830 | 5406 ft | 178 kts | 70° |
| 2026-04-24 01:06 | 9.94989 | -84.32693 | 5166 ft | 164 kts | 70° |
| 2026-04-24 01:06 | 9.95380 | -84.31640 | 4978 ft | 154 kts | 70° |
| 2026-04-24 01:06 | 9.95745 | -84.30661 | 4792 ft | 147 kts | 70° |
| 2026-04-24 01:07 | 9.96097 | -84.29713 | 4648 ft | 141 kts | 70° |
| 2026-04-24 01:07 | 9.96449 | -84.28767 | 4456 ft | 143 kts | 70° |
| 2026-04-24 01:07 | 9.96801 | -84.27822 | 4240 ft | 145 kts | 70° |
| 2026-04-24 01:07 | 9.97159 | -84.26863 | 4054 ft | 146 kts | 68° |
| 2026-04-24 01:08 | 9.97519 | -84.25897 | 3867 ft | 146 kts | 69° |
| 2026-04-24 01:08 | 9.97879 | -84.24939 | 3658 ft | 148 kts | 69° |
| 2026-04-24 01:08 | 9.98238 | -84.23961 | 3476 ft | 144 kts | 68° |
| 2026-04-24 01:08 | 9.98596 | -84.23010 | 3290 ft | 145 kts | 69° |
| 2026-04-24 01:09 | 9.98950 | -84.22075 | 3090 ft | 142 kts | 70° |
| 2026-04-24 01:09 | 9.99255 | -84.21208 | 3030 ft | 118 kts | 59° |
| 2026-04-24 01:09 | 9.99507 | -84.20579 | 3029 ft | 72 kts | 68° |
| 2026-04-24 01:09 | 9.99627 | -84.20256 | 3029 ft | 31 kts | 68° |
| 2026-04-24 01:10 | 9.99674 | -84.20147 | 3029 ft | 13 kts | 39° |
| 2026-04-24 01:10 | 9.99722 | -84.20142 | 3029 ft | 3 kts | 350° |
| 2026-04-24 01:10 | 9.99740 | -84.20145 | 3029 ft | 2 kts | 350° |
| 2026-04-24 01:10 | 9.99753 | -84.20152 | 3029 ft | 2 kts | 295° |
| 2026-04-24 01:11 | 9.99759 | -84.20167 | 3029 ft | 2 kts | 292° |
| 2026-04-24 01:11 | 9.99766 | -84.20180 | 3029 ft | 2 kts | 310° |
| 2026-04-24 01:11 | 9.99776 | -84.20188 | 3029 ft | 2 kts | 339° |
| 2026-04-24 01:11 | 9.99788 | -84.20192 | 3029 ft | 2 kts | 339° |
| 2026-04-24 01:12 | 9.99798 | -84.20196 | 3029 ft | 1 kts | 339° |
| 2026-04-24 01:12 | 9.99807 | -84.20200 | 3029 ft | 1 kts | 339° |
| 2026-04-24 01:12 | 9.99811 | -84.20201 | 3029 ft | 2 kts | 339° |
| 2026-04-24 01:12 | 9.99814 | -84.20202 | 3029 ft | 0 kts | 339° |